createdAt,value
2018-03-17T00:00:56.887Z,81.69
2018-03-17T00:03:25.009Z,81.34
2018-03-17T00:05:52.580Z,80.97
2018-03-17T00:08:20.107Z,81.24
2018-03-17T00:10:48.359Z,82.42
2018-03-17T00:13:15.903Z,82.30
2018-03-17T00:15:44.244Z,82.43
2018-03-17T00:18:11.778Z,82.41
2018-03-17T00:20:40.538Z,81.67
2018-03-17T00:23:09.149Z,81.48
2018-03-17T00:25:37.373Z,81.44
2018-03-17T00:28:04.899Z,81.72
2018-03-17T00:30:32.452Z,81.42
2018-03-17T00:33:00.210Z,81.47
2018-03-17T00:35:28.526Z,82.90
2018-03-17T00:37:56.059Z,82.67
2018-03-17T00:40:23.639Z,84.25
2018-03-17T00:42:51.153Z,85.12
2018-03-17T00:45:18.919Z,85.32
2018-03-17T00:47:46.876Z,84.07
2018-03-17T00:50:14.477Z,83.40
2018-03-17T00:52:43.127Z,83.45
2018-03-17T00:55:11.621Z,83.23
2018-03-17T00:57:40.158Z,83.56
2018-03-17T01:00:07.688Z,83.47
2018-03-17T01:02:36.105Z,83.20
2018-03-17T01:05:03.657Z,83.36
2018-03-17T01:07:31.632Z,83.31
2018-03-17T01:10:00.040Z,82.92
2018-03-17T01:12:28.536Z,82.95
2018-03-17T01:14:57.315Z,83.04
2018-03-17T01:17:25.039Z,83.11
2018-03-17T01:19:53.547Z,83.29
2018-03-17T01:22:21.105Z,83.17
2018-03-17T01:24:49.133Z,84.00
2018-03-17T01:27:17.451Z,83.97
2018-03-17T01:29:45.056Z,83.36
2018-03-17T01:32:13.588Z,83.49
2018-03-17T01:34:41.110Z,83.18
2018-03-17T01:37:09.332Z,83.30
2018-03-17T01:39:37.116Z,83.43
2018-03-17T01:42:05.623Z,82.96
2018-03-17T01:44:33.787Z,83.16
2018-03-17T01:47:02.011Z,82.77
2018-03-17T01:49:30.774Z,83.19
2018-03-17T01:51:58.577Z,83.28
2018-03-17T01:54:32.108Z,83.28
2018-03-17T01:57:00.931Z,83.45
2018-03-17T01:59:28.452Z,83.31
2018-03-17T02:01:56.045Z,83.94
2018-03-17T02:04:23.583Z,83.96
2018-03-17T02:06:51.142Z,83.43
2018-03-17T02:09:18.668Z,83.78
2018-03-17T02:11:46.214Z,83.85
2018-03-17T02:14:13.727Z,83.94
2018-03-17T02:16:41.285Z,83.81
2018-03-17T02:19:08.816Z,83.83
2018-03-17T02:21:36.407Z,84.45
2018-03-17T02:24:03.955Z,84.03
2018-03-17T02:26:31.509Z,84.19
2018-03-17T02:28:59.091Z,84.19
2018-03-17T02:31:26.757Z,83.64
2018-03-17T02:33:54.276Z,83.67
2018-03-17T02:36:21.819Z,84.23
2018-03-17T02:38:49.395Z,83.72
2018-03-17T02:41:16.924Z,83.47
2018-03-17T02:43:44.500Z,84.63
2018-03-17T02:46:12.024Z,84.56
2018-03-17T02:48:39.676Z,84.19
2018-03-17T02:51:07.201Z,84.58
2018-03-17T02:53:34.761Z,84.58
2018-03-17T02:56:02.276Z,84.75
2018-03-17T02:58:29.832Z,84.90
2018-03-17T03:00:57.356Z,86.08
2018-03-17T03:03:24.922Z,88.04
2018-03-17T03:05:52.439Z,86.43
2018-03-17T03:08:19.998Z,86.23
2018-03-17T03:10:47.524Z,87.91
2018-03-17T03:13:15.164Z,89.22
2018-03-17T03:15:42.683Z,88.55
2018-03-17T03:18:10.232Z,87.67
2018-03-17T03:20:37.764Z,88.10
2018-03-17T03:23:05.334Z,87.65
2018-03-17T03:25:32.966Z,87.68
2018-03-17T03:28:01.319Z,87.88
2018-03-17T03:30:28.835Z,87.66
2018-03-17T03:32:56.451Z,88.48
2018-03-17T03:35:23.973Z,87.16
2018-03-17T03:37:51.530Z,85.98
2018-03-17T03:40:19.052Z,85.84
2018-03-17T03:42:46.617Z,86.56
2018-03-17T03:45:14.162Z,86.30
2018-03-17T03:47:41.731Z,85.53
2018-03-17T03:50:09.252Z,85.84
2018-03-17T03:52:36.817Z,86.60
2018-03-17T03:55:04.360Z,86.01
2018-03-17T03:57:31.943Z,85.25
2018-03-17T03:59:59.469Z,83.97
2018-03-17T04:02:27.049Z,84.47
2018-03-17T04:04:54.577Z,85.03
2018-03-17T04:07:22.119Z,84.07
2018-03-17T04:09:49.646Z,84.71
2018-03-17T04:12:17.204Z,84.71
2018-03-17T04:14:44.729Z,83.82
2018-03-17T04:17:12.274Z,84.72
2018-03-17T04:19:39.857Z,84.43
2018-03-17T04:22:07.410Z,83.13
2018-03-17T04:24:36.546Z,83.17
2018-03-17T04:27:04.077Z,83.68
2018-03-17T04:29:31.676Z,83.66
2018-03-17T04:31:59.223Z,82.82
2018-03-17T04:34:26.799Z,82.53
2018-03-17T04:36:54.319Z,82.65
2018-03-17T04:39:21.901Z,82.31
2018-03-17T04:41:49.451Z,81.61
2018-03-17T04:44:17.005Z,80.98
2018-03-17T04:46:44.523Z,81.25
2018-03-17T04:49:12.110Z,80.66
2018-03-17T04:51:39.633Z,80.24
2018-03-17T04:54:07.203Z,81.64
2018-03-17T04:56:34.747Z,82.41
2018-03-17T04:59:02.300Z,81.85
2018-03-17T05:01:29.831Z,81.86
2018-03-17T05:03:57.402Z,81.82
2018-03-17T05:06:24.928Z,81.17
2018-03-17T05:08:52.475Z,80.20
2018-03-17T05:11:20.005Z,80.36
2018-03-17T05:13:47.560Z,80.36
2018-03-17T05:16:15.107Z,81.74
2018-03-17T05:18:42.668Z,81.86
2018-03-17T05:21:10.272Z,80.68
2018-03-17T05:23:37.843Z,80.51
2018-03-17T05:26:05.420Z,81.03
2018-03-17T05:28:32.977Z,80.31
2018-03-17T05:31:00.494Z,80.61
2018-03-17T05:33:28.043Z,80.94
2018-03-17T05:35:55.563Z,81.52
2018-03-17T05:38:23.115Z,81.25
2018-03-17T05:40:50.663Z,82.42
2018-03-17T05:43:18.259Z,80.97
2018-03-17T05:45:45.796Z,80.29
2018-03-17T05:48:13.347Z,80.63
2018-03-17T05:50:40.899Z,81.25
2018-03-17T05:53:08.464Z,81.01
2018-03-17T05:55:36.000Z,83.10
2018-03-17T05:58:03.529Z,82.92
2018-03-17T06:00:31.093Z,82.80
2018-03-17T06:02:58.616Z,83.64
2018-03-17T06:05:26.181Z,81.52
2018-03-17T06:07:53.716Z,83.22
2018-03-17T06:10:21.266Z,83.60
2018-03-17T06:12:48.797Z,82.61
2018-03-17T06:15:17.325Z,81.95
2018-03-17T06:17:44.843Z,82.01
2018-03-17T06:20:12.425Z,81.32
2018-03-17T06:22:39.955Z,80.76
2018-03-17T06:25:07.533Z,81.47
2018-03-17T06:27:35.064Z,81.90
2018-03-17T06:30:02.637Z,82.59
2018-03-17T06:32:30.181Z,82.12
2018-03-17T06:34:57.779Z,83.25
2018-03-17T06:37:25.300Z,83.57
2018-03-17T06:39:52.870Z,82.49
2018-03-17T06:42:20.415Z,81.70
2018-03-17T06:44:47.978Z,81.46
2018-03-17T06:47:15.496Z,83.18
2018-03-17T06:49:43.542Z,83.22
2018-03-17T06:52:12.725Z,82.44
2018-03-17T06:54:40.704Z,82.01
2018-03-17T06:57:08.227Z,81.57
2018-03-17T06:59:35.775Z,80.78
2018-03-17T07:02:03.310Z,82.26
2018-03-17T07:04:30.893Z,80.80
2018-03-17T07:06:58.443Z,81.14
2018-03-17T07:09:26.363Z,80.94
2018-03-17T07:11:53.907Z,81.52
2018-03-17T07:14:21.476Z,81.02
2018-03-17T07:16:49.118Z,81.06
2018-03-17T07:19:20.250Z,81.66
2018-03-17T07:21:48.067Z,81.22
2018-03-17T07:24:20.842Z,81.69
2018-03-17T07:26:48.429Z,81.65
2018-03-17T07:29:21.200Z,80.62
2018-03-17T07:31:52.513Z,81.13
2018-03-17T07:34:24.531Z,80.44
2018-03-17T07:36:57.718Z,79.82
2018-03-17T07:39:29.085Z,80.82
2018-03-17T07:41:59.910Z,80.71
2018-03-17T07:44:30.242Z,79.32
2018-03-17T07:47:02.410Z,79.52
2018-03-17T07:49:33.366Z,80.10
2018-03-17T07:52:03.666Z,79.56
2018-03-17T07:54:35.731Z,80.09
2018-03-17T07:57:07.811Z,79.73
2018-03-17T07:59:41.067Z,79.10
2018-03-17T08:02:13.808Z,79.84
2018-03-17T08:04:46.247Z,80.27
2018-03-17T08:09:53.420Z,79.94
2018-03-17T08:12:25.682Z,80.26
2018-03-17T08:14:57.231Z,78.63
2018-03-17T08:17:27.227Z,79.40
2018-03-17T08:19:58.356Z,79.26
2018-03-17T08:25:07.357Z,78.13
2018-03-17T08:27:39.168Z,78.39
2018-03-17T08:30:09.688Z,78.54
2018-03-17T08:32:40.807Z,78.71
2018-03-17T08:38:01.325Z,78.60
2018-03-17T08:40:32.952Z,78.72
2018-03-17T08:43:04.000Z,78.35
2018-03-17T08:45:35.486Z,77.76
2018-03-17T08:48:05.670Z,77.73
2018-03-17T08:50:36.725Z,78.22
2018-03-17T08:53:07.405Z,79.82
2018-03-17T08:55:38.575Z,78.76
2018-03-17T08:58:12.978Z,77.29
2018-03-17T09:00:43.820Z,78.84
2018-03-17T09:03:14.396Z,77.43
2018-03-17T09:05:44.996Z,77.45
2018-03-17T09:08:16.249Z,78.33
2018-03-17T09:10:47.486Z,77.34
2018-03-17T09:13:18.983Z,76.84
2018-03-17T09:15:50.772Z,76.69
2018-03-17T09:18:22.335Z,77.05
2018-03-17T09:20:52.711Z,77.22
2018-03-17T09:23:24.289Z,76.90
2018-03-17T09:25:56.286Z,78.48
2018-03-17T09:28:27.217Z,76.58
2018-03-17T09:30:58.145Z,76.20
2018-03-17T09:33:30.620Z,77.08
2018-03-17T09:36:01.763Z,77.53
2018-03-17T09:38:33.418Z,76.91
2018-03-17T09:41:05.314Z,76.39
2018-03-17T09:43:38.177Z,76.92
2018-03-17T09:46:11.125Z,75.93
2018-03-17T09:48:42.315Z,76.31
2018-03-17T09:51:13.633Z,76.01
2018-03-17T09:53:44.746Z,76.41
2018-03-17T09:56:12.316Z,76.15
2018-03-17T09:58:39.876Z,75.67
2018-03-17T10:01:07.423Z,76.72
2018-03-17T10:03:35.417Z,76.91
2018-03-17T10:06:03.367Z,75.41
2018-03-17T10:08:30.889Z,76.84
2018-03-17T10:10:58.505Z,76.06
2018-03-17T10:13:26.037Z,75.55
2018-03-17T10:15:53.591Z,76.23
2018-03-17T10:18:23.894Z,75.66
2018-03-17T10:20:51.919Z,76.41
2018-03-17T10:23:19.445Z,77.07
2018-03-17T10:25:47.041Z,76.59
2018-03-17T10:28:14.619Z,75.69
2018-03-17T10:30:42.180Z,75.92
2018-03-17T10:33:09.715Z,77.10
2018-03-17T10:35:37.254Z,76.81
2018-03-17T10:38:04.800Z,76.87
2018-03-17T10:40:36.459Z,76.08
2018-03-17T10:43:06.518Z,76.33
2018-03-17T10:45:37.982Z,76.19
2018-03-17T10:48:09.017Z,77.07
2018-03-17T10:50:39.342Z,75.79
2018-03-17T10:53:10.006Z,76.79
2018-03-17T10:55:40.730Z,77.52
2018-03-17T10:58:12.077Z,77.55
2018-03-17T11:00:49.357Z,76.60
2018-03-17T11:03:20.409Z,78.08
2018-03-17T11:05:51.448Z,77.47
2018-03-17T11:08:21.932Z,77.96
2018-03-17T11:10:55.636Z,76.78
2018-03-17T11:13:31.557Z,76.50
2018-03-17T11:16:04.624Z,76.18
2018-03-17T11:18:37.191Z,76.97
2018-03-17T11:21:07.219Z,76.61
2018-03-17T11:23:40.350Z,76.01
2018-03-17T11:26:12.499Z,77.86
2018-03-17T11:28:44.527Z,76.36
2018-03-17T11:31:15.613Z,76.60
2018-03-17T11:33:46.507Z,77.80
2018-03-17T11:36:17.975Z,77.49
2018-03-17T11:38:48.908Z,76.33
2018-03-17T11:41:19.994Z,76.16
2018-03-17T11:43:50.771Z,76.49
2018-03-17T11:46:23.006Z,75.43
2018-03-17T11:49:03.159Z,75.23
2018-03-17T11:51:36.775Z,74.40
2018-03-17T11:54:08.492Z,75.47
2018-03-17T11:56:39.897Z,75.67
2018-03-17T11:59:12.902Z,74.40
2018-03-17T12:01:46.485Z,74.63
2018-03-17T12:04:18.793Z,74.61
2018-03-17T12:06:49.165Z,75.07
2018-03-17T12:09:23.230Z,75.82
2018-03-17T12:11:54.308Z,76.67
2018-03-17T12:14:25.760Z,74.94
2018-03-17T12:16:56.590Z,74.71
2018-03-17T12:19:27.088Z,74.68
2018-03-17T12:21:58.157Z,74.43
2018-03-17T12:24:29.250Z,74.76
2018-03-17T12:27:00.622Z,73.20
2018-03-17T12:29:33.990Z,74.73
2018-03-17T12:32:05.336Z,74.69
2018-03-17T12:34:36.567Z,73.66
2018-03-17T12:37:07.579Z,74.45
2018-03-17T12:39:39.415Z,73.66
2018-03-17T12:42:10.588Z,73.92
2018-03-17T12:44:41.426Z,74.89
2018-03-17T12:47:12.273Z,74.86
2018-03-17T12:49:44.400Z,72.85
2018-03-17T12:52:16.327Z,73.22
2018-03-17T12:54:47.540Z,73.31
2018-03-17T12:57:19.712Z,72.77
2018-03-17T12:59:50.635Z,73.01
2018-03-17T13:02:23.240Z,73.51
2018-03-17T13:04:55.516Z,72.98
2018-03-17T13:07:26.641Z,72.46
2018-03-17T13:09:58.049Z,73.17
2018-03-17T13:12:30.251Z,71.87
2018-03-17T13:15:01.155Z,71.36
2018-03-17T13:20:12.707Z,71.63
2018-03-17T13:22:55.290Z,71.82
2018-03-17T13:25:26.521Z,71.87
2018-03-17T13:28:08.097Z,71.50
2018-03-17T13:30:39.338Z,71.66
2018-03-17T13:33:12.356Z,71.27
2018-03-17T13:35:53.749Z,71.73
2018-03-17T13:38:24.914Z,71.11
2018-03-17T13:40:56.809Z,70.78
2018-03-17T13:43:27.709Z,69.75
2018-03-17T13:45:59.338Z,69.30
2018-03-17T13:48:30.219Z,70.71
2018-03-17T13:51:01.444Z,72.10
2018-03-17T13:53:32.742Z,70.65
2018-03-17T13:56:04.104Z,70.09
2018-03-17T13:58:37.088Z,70.23
2018-03-17T14:01:08.204Z,70.49
2018-03-17T14:03:39.425Z,70.09
2018-03-17T14:06:10.929Z,69.47
2018-03-17T14:08:43.892Z,70.05
2018-03-17T14:11:14.982Z,70.82
2018-03-17T14:13:46.452Z,71.71
2018-03-17T14:16:18.701Z,70.45
2018-03-17T14:18:49.962Z,71.38
2018-03-17T14:21:21.343Z,70.48
2018-03-17T14:23:52.589Z,70.74
2018-03-17T14:26:23.641Z,70.25
2018-03-17T14:28:55.728Z,70.63
2018-03-17T14:31:27.190Z,71.18
2018-03-17T14:33:58.225Z,70.78
2018-03-17T14:36:29.599Z,71.85
2018-03-17T14:39:00.968Z,70.34
2018-03-17T14:41:32.068Z,72.20
2018-03-17T14:44:04.183Z,70.30
2018-03-17T14:46:35.395Z,70.84
2018-03-17T14:49:06.591Z,71.08
2018-03-17T14:51:38.095Z,70.66
2018-03-17T14:54:09.804Z,70.81
2018-03-17T14:56:40.525Z,70.40
2018-03-17T14:59:11.652Z,70.63
2018-03-17T15:01:42.682Z,71.06
2018-03-17T15:04:14.003Z,70.15
2018-03-17T15:06:45.208Z,70.79
2018-03-17T15:09:17.142Z,70.33
2018-03-17T15:11:49.080Z,69.49
2018-03-17T15:14:20.545Z,71.39
2018-03-17T15:16:51.506Z,70.47
2018-03-17T15:19:25.045Z,70.26
2018-03-17T15:21:56.772Z,70.14
2018-03-17T15:24:28.100Z,70.50
2018-03-17T15:26:59.522Z,70.69
2018-03-17T15:29:31.541Z,69.74
2018-03-17T15:32:02.779Z,70.58
2018-03-17T15:34:34.451Z,69.93
2018-03-17T15:37:05.478Z,71.26
2018-03-17T15:39:34.194Z,70.95
2018-03-17T15:42:03.661Z,70.32
2018-03-17T15:44:32.671Z,70.39
2018-03-17T15:47:02.204Z,69.35
2018-03-17T15:49:35.165Z,70.29
2018-03-17T15:52:03.678Z,69.19
2018-03-17T15:54:34.492Z,69.93
2018-03-17T15:57:03.128Z,70.33
2018-03-17T15:59:31.724Z,70.02
2018-03-17T16:02:03.331Z,70.18
2018-03-17T16:04:30.913Z,70.32
2018-03-17T16:07:00.636Z,69.33
2018-03-17T16:09:29.224Z,69.48
2018-03-17T16:11:59.170Z,69.59
2018-03-17T16:14:29.844Z,70.23
2018-03-17T16:16:58.451Z,69.46
2018-03-17T16:19:28.678Z,70.37
2018-03-17T16:22:00.740Z,70.15
2018-03-17T16:24:32.336Z,70.27
2018-03-17T16:27:02.139Z,69.70
2018-03-17T16:29:31.452Z,69.95
2018-03-17T16:32:00.885Z,70.61
2018-03-17T16:34:31.291Z,70.57
2018-03-17T16:36:59.835Z,70.70
2018-03-17T16:39:27.897Z,70.04
2018-03-17T16:41:57.720Z,69.82
2018-03-17T16:44:25.675Z,69.75
2018-03-17T16:46:54.133Z,69.68
2018-03-17T16:49:23.545Z,70.59
2018-03-17T16:51:51.867Z,70.13
2018-03-17T16:54:22.711Z,70.65
2018-03-17T16:56:54.314Z,70.39
2018-03-17T16:59:22.289Z,70.85
2018-03-17T17:01:51.837Z,69.53
2018-03-17T17:04:21.492Z,69.70
2018-03-17T17:06:49.084Z,70.84
2018-03-17T17:09:18.246Z,69.61
2018-03-17T17:11:46.204Z,69.16
2018-03-17T17:14:13.809Z,69.04
2018-03-17T17:16:43.878Z,69.80
2018-03-17T17:19:14.677Z,69.56
2018-03-17T17:21:43.770Z,69.98
2018-03-17T17:24:11.669Z,69.12
2018-03-17T17:26:42.682Z,69.23
2018-03-17T17:29:13.644Z,68.98
2018-03-17T17:31:44.713Z,69.91
2018-03-17T17:34:15.987Z,69.50
2018-03-17T17:36:46.683Z,70.01
2018-03-17T17:39:18.112Z,69.91
2018-03-17T17:41:50.487Z,70.37
2018-03-17T17:44:22.759Z,69.83
2018-03-17T17:46:59.080Z,69.08
2018-03-17T17:49:29.631Z,69.24
2018-03-17T17:52:00.882Z,69.41
2018-03-17T17:54:35.256Z,68.53
2018-03-17T17:57:08.466Z,69.82
2018-03-17T17:59:42.326Z,68.56
2018-03-17T18:02:15.081Z,69.01
2018-03-17T18:04:47.270Z,70.15
2018-03-17T18:07:19.451Z,69.64
2018-03-17T18:09:50.204Z,69.72
2018-03-17T18:12:21.236Z,68.89
2018-03-17T18:14:52.783Z,68.47
2018-03-17T18:17:24.930Z,69.28
2018-03-17T18:19:58.346Z,69.30
2018-03-17T18:22:29.194Z,68.76
2018-03-17T18:24:59.951Z,69.47
2018-03-17T18:27:31.355Z,69.31
2018-03-17T18:30:03.672Z,67.90
2018-03-17T18:32:37.398Z,69.68
2018-03-17T18:35:09.151Z,69.50
2018-03-17T18:37:41.602Z,69.07
2018-03-17T18:40:13.823Z,69.79
2018-03-17T18:42:44.855Z,68.90
2018-03-17T18:45:16.109Z,68.21
2018-03-17T18:47:47.764Z,69.25
2018-03-17T18:50:18.755Z,68.30
2018-03-17T18:52:49.607Z,68.08
2018-03-17T18:55:22.288Z,68.05
2018-03-17T18:57:53.928Z,68.33
2018-03-17T19:00:25.472Z,69.17
2018-03-17T19:02:56.792Z,69.59
2018-03-17T19:05:27.245Z,70.19
2018-03-17T19:08:00.077Z,69.41
2018-03-17T19:10:32.285Z,69.68
2018-03-17T19:13:03.620Z,70.09
2018-03-17T19:15:35.280Z,68.67
2018-03-17T19:18:06.941Z,68.87
2018-03-17T19:20:37.880Z,68.34
2018-03-17T19:23:10.388Z,69.38
2018-03-17T19:25:41.755Z,70.22
2018-03-17T19:28:13.294Z,70.18
2018-03-17T19:30:45.934Z,68.92
2018-03-17T19:33:17.238Z,69.27
2018-03-17T19:35:49.200Z,68.60
2018-03-17T19:38:20.882Z,69.58
2018-03-17T19:40:52.327Z,69.28
2018-03-17T19:43:26.545Z,68.33
2018-03-17T19:45:57.916Z,69.56
2018-03-17T19:48:29.449Z,69.52
2018-03-17T19:51:01.530Z,69.83
2018-03-17T19:53:33.688Z,70.84
2018-03-17T19:56:05.060Z,71.56
2018-03-17T19:58:38.121Z,71.17
2018-03-17T20:01:08.763Z,71.31
2018-03-17T20:03:42.583Z,71.56
2018-03-17T20:06:10.555Z,71.30
2018-03-17T20:08:38.214Z,71.46
2018-03-17T20:11:05.736Z,71.79
2018-03-17T20:13:34.967Z,70.50
2018-03-17T20:16:02.686Z,70.66
2018-03-17T20:18:31.043Z,69.57
2018-03-17T20:20:58.568Z,70.41
2018-03-17T20:23:26.230Z,70.59
2018-03-17T20:25:53.757Z,70.51
2018-03-17T20:28:21.329Z,70.76
2018-03-17T20:30:48.853Z,71.14
2018-03-17T20:33:16.412Z,70.70
2018-03-17T20:35:44.484Z,70.75
2018-03-17T20:38:12.741Z,69.78
2018-03-17T20:40:41.704Z,70.70
2018-03-17T20:43:09.820Z,70.82
2018-03-17T20:45:37.940Z,70.21
2018-03-17T20:48:06.171Z,70.71
2018-03-17T20:50:33.710Z,71.03
2018-03-17T20:53:01.337Z,70.65
2018-03-17T20:55:28.898Z,71.17
2018-03-17T20:57:56.596Z,71.05
2018-03-17T21:00:24.103Z,70.44
2018-03-17T21:02:51.658Z,70.00
2018-03-17T21:05:19.193Z,69.98
2018-03-17T21:07:46.760Z,69.65
2018-03-17T21:10:14.312Z,69.92
2018-03-17T21:12:41.916Z,70.30
2018-03-17T21:15:09.448Z,69.51
2018-03-17T21:17:37.041Z,70.00
2018-03-17T21:20:04.602Z,70.16
2018-03-17T21:22:32.195Z,68.70
2018-03-17T21:24:59.746Z,69.53
2018-03-17T21:27:27.964Z,70.34
2018-03-17T21:29:55.503Z,69.68
2018-03-17T21:32:25.727Z,69.63
2018-03-17T21:34:53.532Z,69.51
2018-03-17T21:37:21.071Z,70.43
2018-03-17T21:39:48.670Z,70.54
2018-03-17T21:42:16.557Z,70.69
2018-03-17T21:44:44.170Z,69.35
2018-03-17T21:47:11.806Z,70.36
2018-03-17T21:49:39.394Z,70.10
2018-03-17T21:52:06.915Z,69.98
2018-03-17T21:54:36.703Z,69.97
2018-03-17T21:57:04.229Z,69.02
2018-03-17T21:59:31.799Z,69.77
2018-03-17T22:01:59.443Z,68.98
2018-03-17T22:04:27.043Z,69.81
2018-03-17T22:06:56.168Z,69.94
2018-03-17T22:09:26.805Z,69.68
2018-03-17T22:11:55.506Z,70.29
2018-03-17T22:14:25.450Z,70.33
2018-03-17T22:16:55.456Z,69.72
2018-03-17T22:19:25.549Z,70.26
2018-03-17T22:21:55.276Z,71.20
2018-03-17T22:24:25.054Z,69.61
2018-03-17T22:26:53.832Z,70.50
2018-03-17T22:29:21.625Z,69.86
2018-03-17T22:31:49.436Z,69.62
2018-03-17T22:34:18.066Z,70.09
2018-03-17T22:36:45.677Z,70.72
2018-03-17T22:39:15.252Z,69.44
2018-03-17T22:41:43.825Z,69.36
2018-03-17T22:44:15.507Z,69.66
2018-03-17T22:46:44.390Z,69.95
2018-03-17T22:49:12.606Z,70.59
2018-03-17T22:51:40.532Z,69.05
2018-03-17T22:54:10.560Z,68.73
2018-03-17T22:56:38.157Z,68.50
2018-03-17T22:59:05.716Z,69.41
2018-03-17T23:01:35.793Z,69.68
2018-03-17T23:04:04.172Z,69.44
2018-03-17T23:06:31.925Z,68.76
2018-03-17T23:08:59.472Z,69.45
2018-03-17T23:11:27.080Z,69.34
2018-03-17T23:13:54.997Z,69.41
2018-03-17T23:16:22.787Z,69.80
2018-03-17T23:18:50.335Z,68.83
2018-03-17T23:21:18.260Z,69.09
2018-03-17T23:23:45.827Z,69.22
2018-03-17T23:26:13.464Z,68.97
2018-03-17T23:28:41.842Z,69.56
2018-03-17T23:31:09.454Z,69.73
2018-03-17T23:33:38.539Z,70.42
2018-03-17T23:36:06.523Z,69.95
2018-03-17T23:38:35.196Z,69.16
2018-03-17T23:41:03.378Z,68.34
2018-03-17T23:43:30.926Z,68.58
2018-03-17T23:45:59.096Z,68.93
2018-03-17T23:48:28.078Z,69.32
2018-03-17T23:50:56.000Z,69.15
2018-03-17T23:53:24.086Z,68.88
2018-03-17T23:55:52.318Z,69.31
2018-03-17T23:58:22.572Z,68.82
